Anglian Lady — VOLP — position and weather

sailwx.info

Track history (hours):
 
Tides and Currents Weather Stations Pressure Air Temp Water Temp Dewpoint Dewpoint Depression Visibility Wind Speed Wind Dir Waves Ship Positions

Anglian Lady

Last reported at 2016-Jul-30 11:18 UTC. Time now 2016-Jul-30 22:40 UTC.
Position N 45°12' W 085°47'.

Length 32 m.

Type: Tug. MMSI: 316002238.

Date/timePositionNaut miles runAvg speedWind from/ knotsBaromVisibWave heightAir tempDewpointWater temp
2016-Jul-30 11:18N 45°12' W 085°47'6 8.0
2016-Jul-30 10:33N 45°17' W 085°42'8 8.0
2016-Jul-30 09:34N 45°23' W 085°35'8 7.7
2016-Jul-30 08:33N 45°29' W 085°28'8 7.7
2016-Jul-30 07:33N 45°35' W 085°22'8 7.7
2016-Jul-30 06:33N 45°41' W 085°15'7 7.3
2016-Jul-30 05:33N 45°47' W 085°09'6 6.1
2016-Jul-30 04:33N 45°50' W 085°01'8 7.7
2016-Jul-30 03:34N 45°49' W 084°50'8 7.4
2016-Jul-30 02:33N 45°50' W 084°39'  
2016-Jul-27 09:26N 45°52' W 084°17'8 9.3
2016-Jul-27 08:34N 45°51' W 084°29'9 9.2
2016-Jul-27 07:34N 45°49' W 084°42'9 9.0
2016-Jul-27 06:34N 45°49' W 084°54'9 9.2
2016-Jul-27 05:32N 45°49' W 085°08'9 9.0
2016-Jul-27 04:33N 45°41' W 085°13'9 9.3
2016-Jul-27 03:34N 45°34' W 085°21'10 9.5
2016-Jul-27 02:33N 45°26' W 085°29'10 9.5
2016-Jul-27 01:33N 45°18' W 085°37'  
2016-Jul-21 21:33N 45°16' W 085°42'7 6.7
2016-Jul-21 20:33N 45°22' W 085°37'7 6.7
2016-Jul-21 19:34N 45°27' W 085°31'6 6.3
2016-Jul-21 18:34N 45°32' W 085°25'6 6.0
2016-Jul-21 17:29N 45°37' W 085°20'5 5.8
2016-Jul-21 16:33N 45°41' W 085°15'6 5.7
2016-Jul-21 15:27N 45°46' W 085°09'5 5.0
2016-Jul-21 14:33N 45°50' W 085°06'6 6.2
2016-Jul-21 13:34N 45°50' W 084°57'5 4.4
2016-Jul-21 12:30N 45°49' W 084°51'  
Track history (hours):
 
Tides and Currents Weather Stations Pressure Air Temp Water Temp Dewpoint Dewpoint Depression Visibility Wind Speed Wind Dir Waves Ship Positions

Anglian Lady

Last reported at 2016-Jul-30 11:18 UTC. Time now 2016-Jul-30 22:40 UTC.
Position N 45°12' W 085°47'.

Length 32 m.

Type: Tug. MMSI: 316002238.

Date/timePositionNaut miles runAvg speedWind from/ knotsBaromVisibWave heightAir tempDewpointWater temp
2016-Jul-30 11:18N 45°12' W 085°47'6 8.0
2016-Jul-30 10:33N 45°17' W 085°42'8 8.0
2016-Jul-30 09:34N 45°23' W 085°35'8 7.7
2016-Jul-30 08:33N 45°29' W 085°28'8 7.7
2016-Jul-30 07:33N 45°35' W 085°22'8 7.7
2016-Jul-30 06:33N 45°41' W 085°15'7 7.3
2016-Jul-30 05:33N 45°47' W 085°09'6 6.1
2016-Jul-30 04:33N 45°50' W 085°01'8 7.7
2016-Jul-30 03:34N 45°49' W 084°50'8 7.4
2016-Jul-30 02:33N 45°50' W 084°39'  
2016-Jul-27 09:26N 45°52' W 084°17'8 9.3
2016-Jul-27 08:34N 45°51' W 084°29'9 9.2
2016-Jul-27 07:34N 45°49' W 084°42'9 9.0
2016-Jul-27 06:34N 45°49' W 084°54'9 9.2
2016-Jul-27 05:32N 45°49' W 085°08'9 9.0
2016-Jul-27 04:33N 45°41' W 085°13'9 9.3
2016-Jul-27 03:34N 45°34' W 085°21'10 9.5
2016-Jul-27 02:33N 45°26' W 085°29'10 9.5
2016-Jul-27 01:33N 45°18' W 085°37'  
2016-Jul-21 21:33N 45°16' W 085°42'7 6.7
2016-Jul-21 20:33N 45°22' W 085°37'7 6.7
2016-Jul-21 19:34N 45°27' W 085°31'6 6.3
2016-Jul-21 18:34N 45°32' W 085°25'6 6.0
2016-Jul-21 17:29N 45°37' W 085°20'5 5.8
2016-Jul-21 16:33N 45°41' W 085°15'6 5.7
2016-Jul-21 15:27N 45°46' W 085°09'5 5.0
2016-Jul-21 14:33N 45°50' W 085°06'6 6.2
2016-Jul-21 13:34N 45°50' W 084°57'5 4.4
2016-Jul-21 12:30N 45°49' W 084°51'  

Dump ship's entire track history